Virtual LH

Virtual LH. There's no better way to fly
Since 2013.



AIRPORT MAP

METAR AND TAF INFORMATION

METAR FOR LIRP
ADDS - METARS form results

(0957 UTC 21 January 2019)
Data provider http://aviationweather.gov/metar/data/
 
METAR text: LIRP 210945Z 13003KT 9999 SCT050 06/02 Q1013 NOSIG
Conditions at: LIRP (PISA (CIV/IT-AFB, IT) observed 0945 UTC 21 January 2019
Temperature: 6.0°C (43°F)
Dewpoint: 2.0°C (36°F) [RH = 75%]
Pressure (altimeter): 29.91 inches Hg (1013.0 mb)
Winds: from the SE (130 degrees) at 3 MPH (3 knots; 1.5 m/s)
Visibility: 6 or more miles (10+ km)
Ceiling: at least 12,000 feet AGL
Clouds: scattered clouds at 5000 feet AGL
Weather: no significant weather observed at this time

METAR text: LIRP 210915Z 13004KT 9999 SCT050 06/03 Q1013 NOSIG
Conditions at: LIRP (PISA (CIV/IT-AFB, IT) observed 0915 UTC 21 January 2019
Temperature: 6.0°C (43°F)
Dewpoint: 3.0°C (37°F) [RH = 81%]
Pressure (altimeter): 29.91 inches Hg (1013.0 mb)
Winds: from the SE (130 degrees) at 5 MPH (4 knots; 2.1 m/s)
Visibility: 6 or more miles (10+ km)
Ceiling: at least 12,000 feet AGL
Clouds: scattered clouds at 5000 feet AGL
Weather: no significant weather observed at this time

Forecast for: LIRP (PISA (CIV/IT-AFB, IT)
Text: TAF LIRP 210500Z 2106/2206 09005KT 9999 FEW030 SCT050
Forecast period: 0600 UTC 21 January 2019 to 0200 UTC 22 January 2019
Forecast type: FROM: standard forecast or significant change
Winds: from the E (90 degrees) at 6 MPH (5 knots; 2.6 m/s)
Visibility: 6 or more miles 10+ km)
Ceiling: at least 12,000 feet AGL
Clouds: few clouds at 3000 feet AGL
scattered clouds at 5000 feet AGL
Weather: no significant weather forecast for this period
Text: BECMG 2202/2204 5000 RA BR BKN020
Forecast period: 0200 to 0600 UTC 22 January 2019
Forecast type: BECOMING: Conditions expected to become as follows by 0400 UTC 22 January 2019
Winds: from the E (90 degrees) at 6 MPH (5 knots; 2.6 m/s)
Visibility: 3 miles (5 km)
Ceiling: 2000 feet AGL
Clouds: broken clouds at 2000 feet AGL
Weather: RA BR  (moderate rain, mist)

RUNWAY INFORMATION

Runway 04L Runway length 9160 ft Runway width 141 ft
Runway elevation 2 ft Runway displaced threshold 979 ft Runway heading 37
Runway 22R Runway length 9160 ft Runway width 141 ft
Runway elevation 6 ft Runway displaced threshold 0 ft Runway heading 217
Runway 04R Runway length 9820 ft Runway width 148 ft
Runway elevation 3 ft Runway displaced threshold 490 ft Runway heading 37
Runway 22L Runway length 9820 ft Runway width 148 ft
Runway elevation 6 ft Runway displaced threshold 843 ft Runway heading 217

AIRPORT FREQUENCIES

Type APP Name APP Frequency 122.1 MHZ
Type GND Name GND Frequency 121.6 MHZ
Type TWR Name TWR Frequency 119.1 MHZ

AIRPORT NEAR NAVIGATION AIDS

Type TACAN Name Pisa Frequency 108300 KHZ
Type VOR-DME Name Pisa Frequency 112100 KHZ
Type NDB Name Pisa Frequency 379 KHZ